sensor_id;sensor_type;location;lat;lon;timestamp;P1;durP1;ratioP1;P2;durP2;ratioP2
54121;SDS011;40029;58.708;50.190;2022-09-20T00:03:33;4.63;;;0.98;;
54121;SDS011;40029;58.708;50.190;2022-09-20T00:06:09;6.60;;;1.08;;
54121;SDS011;40029;58.708;50.190;2022-09-20T00:08:42;4.57;;;0.90;;
54121;SDS011;40029;58.708;50.190;2022-09-20T00:11:15;1.73;;;0.75;;
54121;SDS011;40029;58.708;50.190;2022-09-20T00:13:51;2.63;;;0.80;;
54121;SDS011;40029;58.708;50.190;2022-09-20T00:16:25;2.05;;;0.55;;
54121;SDS011;40029;58.708;50.190;2022-09-20T00:18:58;8.00;;;0.80;;
54121;SDS011;40029;58.708;50.190;2022-09-20T00:21:33;1.35;;;0.60;;
54121;SDS011;40029;58.708;50.190;2022-09-20T00:26:39;3.15;;;0.82;;
54121;SDS011;40029;58.708;50.190;2022-09-20T00:29:10;8.02;;;0.65;;
54121;SDS011;40029;58.708;50.190;2022-09-20T00:31:42;6.82;;;0.95;;
54121;SDS011;40029;58.708;50.190;2022-09-20T00:34:13;4.57;;;0.73;;
54121;SDS011;40029;58.708;50.190;2022-09-20T00:37:03;2.00;;;0.82;;
54121;SDS011;40029;58.708;50.190;2022-09-20T00:39:34;5.10;;;1.10;;
54121;SDS011;40029;58.708;50.190;2022-09-20T00:42:05;4.13;;;1.00;;
54121;SDS011;40029;58.708;50.190;2022-09-20T00:44:40;1.90;;;0.80;;
54121;SDS011;40029;58.708;50.190;2022-09-20T00:52:41;4.10;;;1.02;;
54121;SDS011;40029;58.708;50.190;2022-09-20T00:55:17;3.90;;;0.70;;
54121;SDS011;40029;58.708;50.190;2022-09-20T00:57:49;5.93;;;1.00;;
54121;SDS011;40029;58.708;50.190;2022-09-20T01:00:20;5.70;;;0.90;;
54121;SDS011;40029;58.708;50.190;2022-09-20T01:02:53;7.75;;;1.10;;
54121;SDS011;40029;58.708;50.190;2022-09-20T01:05:28;2.90;;;1.10;;
54121;SDS011;40029;58.708;50.190;2022-09-20T01:07:59;2.75;;;0.77;;
54121;SDS011;40029;58.708;50.190;2022-09-20T01:10:31;3.10;;;1.00;;
54121;SDS011;40029;58.708;50.190;2022-09-20T01:13:02;1.30;;;0.85;;
54121;SDS011;40029;58.708;50.190;2022-09-20T01:15:35;3.38;;;0.98;;
54121;SDS011;40029;58.708;50.190;2022-09-20T01:18:09;11.13;;;1.10;;
54121;SDS011;40029;58.708;50.190;2022-09-20T01:20:41;5.00;;;0.70;;
54121;SDS011;40029;58.708;50.190;2022-09-20T01:23:50;4.00;;;0.82;;
54121;SDS011;40029;58.708;50.190;2022-09-20T01:32:15;2.78;;;0.90;;
54121;SDS011;40029;58.708;50.190;2022-09-20T01:34:53;2.40;;;0.73;;
54121;SDS011;40029;58.708;50.190;2022-09-20T01:37:31;1.10;;;0.70;;
54121;SDS011;40029;58.708;50.190;2022-09-20T01:43:06;7.72;;;1.40;;
54121;SDS011;40029;58.708;50.190;2022-09-20T01:45:54;1.80;;;1.13;;
54121;SDS011;40029;58.708;50.190;2022-09-20T01:48:33;2.00;;;0.65;;
54121;SDS011;40029;58.708;50.190;2022-09-20T02:05:19;1.58;;;0.98;;
54121;SDS011;40029;58.708;50.190;2022-09-20T02:11:19;2.80;;;0.73;;
54121;SDS011;40029;58.708;50.190;2022-09-20T02:16:29;1.73;;;1.30;;
54121;SDS011;40029;58.708;50.190;2022-09-20T02:19:25;1.15;;;1.02;;
54121;SDS011;40029;58.708;50.190;2022-09-20T02:28:46;1.60;;;0.60;;
54121;SDS011;40029;58.708;50.190;2022-09-20T02:42:35;3.40;;;0.85;;
54121;SDS011;40029;58.708;50.190;2022-09-20T02:45:27;2.85;;;0.70;;
54121;SDS011;40029;58.708;50.190;2022-09-20T02:48:04;1.95;;;0.80;;
54121;SDS011;40029;58.708;50.190;2022-09-20T02:53:38;1.88;;;0.70;;
54121;SDS011;40029;58.708;50.190;2022-09-20T03:15:31;3.13;;;0.82;;
54121;SDS011;40029;58.708;50.190;2022-09-20T03:18:45;3.08;;;0.80;;
54121;SDS011;40029;58.708;50.190;2022-09-20T03:53:48;0.90;;;0.70;;
54121;SDS011;40029;58.708;50.190;2022-09-20T04:04:54;2.95;;;0.57;;
54121;SDS011;40029;58.708;50.190;2022-09-20T04:10:23;1.73;;;0.57;;
54121;SDS011;40029;58.708;50.190;2022-09-20T04:18:42;1.02;;;0.90;;
54121;SDS011;40029;58.708;50.190;2022-09-20T04:21:23;5.25;;;1.00;;
54121;SDS011;40029;58.708;50.190;2022-09-20T04:24:06;7.20;;;1.00;;
54121;SDS011;40029;58.708;50.190;2022-09-20T04:26:43;4.28;;;0.73;;
54121;SDS011;40029;58.708;50.190;2022-09-20T14:16:06;2.03;;;1.00;;
54121;SDS011;40029;58.708;50.190;2022-09-20T14:18:39;5.07;;;1.10;;
54121;SDS011;40029;58.708;50.190;2022-09-20T14:21:11;13.90;;;1.40;;
54121;SDS011;40029;58.708;50.190;2022-09-20T14:23:54;3.10;;;1.10;;
54121;SDS011;40029;58.708;50.190;2022-09-20T14:26:29;17.98;;;4.40;;
54121;SDS011;40029;58.708;50.190;2022-09-20T14:40:05;6.88;;;2.53;;
54121;SDS011;40029;58.708;50.190;2022-09-20T14:45:30;3.60;;;1.67;;
54121;SDS011;40029;58.708;50.190;2022-09-20T14:50:41;8.57;;;3.03;;
54121;SDS011;40029;58.708;50.190;2022-09-20T14:53:24;9.93;;;3.17;;
54121;SDS011;40029;58.708;50.190;2022-09-20T15:01:35;6.70;;;3.08;;
54121;SDS011;40029;58.708;50.190;2022-09-20T15:04:17;9.65;;;2.47;;
54121;SDS011;40029;58.708;50.190;2022-09-20T15:06:51;7.60;;;2.70;;
54121;SDS011;40029;58.708;50.190;2022-09-20T15:09:22;8.50;;;2.13;;
54121;SDS011;40029;58.708;50.190;2022-09-20T15:12:27;7.95;;;3.70;;
54121;SDS011;40029;58.708;50.190;2022-09-20T15:14:51;5.97;;;3.45;;
54121;SDS011;40029;58.708;50.190;2022-09-20T15:17:22;4.93;;;2.67;;
54121;SDS011;40029;58.708;50.190;2022-09-20T15:19:53;9.93;;;2.97;;
54121;SDS011;40029;58.708;50.190;2022-09-20T15:22:23;8.55;;;4.60;;
54121;SDS011;40029;58.708;50.190;2022-09-20T15:24:55;6.63;;;3.92;;
54121;SDS011;40029;58.708;50.190;2022-09-20T15:27:26;12.68;;;4.07;;
54121;SDS011;40029;58.708;50.190;2022-09-20T15:29:57;12.30;;;5.15;;
54121;SDS011;40029;58.708;50.190;2022-09-20T15:32:28;32.53;;;5.97;;
54121;SDS011;40029;58.708;50.190;2022-09-20T15:34:59;6.18;;;2.42;;
54121;SDS011;40029;58.708;50.190;2022-09-20T15:37:31;3.50;;;1.50;;
54121;SDS011;40029;58.708;50.190;2022-09-20T15:40:02;2.30;;;1.50;;
54121;SDS011;40029;58.708;50.190;2022-09-20T15:42:34;3.13;;;1.00;;
54121;SDS011;40029;58.708;50.190;2022-09-20T15:45:08;7.10;;;1.45;;
54121;SDS011;40029;58.708;50.190;2022-09-20T15:47:40;4.00;;;1.67;;
54121;SDS011;40029;58.708;50.190;2022-09-20T15:50:11;6.45;;;2.13;;
54121;SDS011;40029;58.708;50.190;2022-09-20T15:52:42;2.95;;;1.25;;
54121;SDS011;40029;58.708;50.190;2022-09-20T15:55:13;3.80;;;1.58;;
54121;SDS011;40029;58.708;50.190;2022-09-20T15:57:44;5.10;;;1.40;;
54121;SDS011;40029;58.708;50.190;2022-09-20T16:00:16;6.45;;;1.92;;
54121;SDS011;40029;58.708;50.190;2022-09-20T16:02:48;9.23;;;3.75;;
54121;SDS011;40029;58.708;50.190;2022-09-20T16:05:19;16.17;;;8.77;;
54121;SDS011;40029;58.708;50.190;2022-09-20T16:07:50;8.48;;;5.35;;
54121;SDS011;40029;58.708;50.190;2022-09-20T16:10:21;9.45;;;5.50;;
54121;SDS011;40029;58.708;50.190;2022-09-20T16:12:52;7.53;;;4.00;;
54121;SDS011;40029;58.708;50.190;2022-09-20T16:15:23;6.10;;;2.53;;
54121;SDS011;40029;58.708;50.190;2022-09-20T16:17:54;8.77;;;3.00;;
54121;SDS011;40029;58.708;50.190;2022-09-20T16:20:43;4.95;;;2.72;;
54121;SDS011;40029;58.708;50.190;2022-09-20T16:23:14;6.32;;;3.28;;
54121;SDS011;40029;58.708;50.190;2022-09-20T16:25:45;11.05;;;2.50;;
54121;SDS011;40029;58.708;50.190;2022-09-20T16:28:19;6.20;;;1.85;;
54121;SDS011;40029;58.708;50.190;2022-09-20T16:30:57;5.47;;;2.20;;
54121;SDS011;40029;58.708;50.190;2022-09-20T16:33:29;3.13;;;1.75;;
54121;SDS011;40029;58.708;50.190;2022-09-20T16:36:02;2.17;;;1.63;;
54121;SDS011;40029;58.708;50.190;2022-09-20T16:38:33;8.88;;;2.22;;
54121;SDS011;40029;58.708;50.190;2022-09-20T16:41:08;6.45;;;2.60;;
54121;SDS011;40029;58.708;50.190;2022-09-20T16:43:39;8.05;;;3.05;;
54121;SDS011;40029;58.708;50.190;2022-09-20T16:46:10;9.18;;;3.90;;
54121;SDS011;40029;58.708;50.190;2022-09-20T16:48:42;16.02;;;3.80;;
54121;SDS011;40029;58.708;50.190;2022-09-20T16:51:14;4.75;;;2.58;;
54121;SDS011;40029;58.708;50.190;2022-09-20T16:53:45;6.85;;;3.50;;
54121;SDS011;40029;58.708;50.190;2022-09-20T16:56:19;8.23;;;3.55;;
54121;SDS011;40029;58.708;50.190;2022-09-20T16:58:52;11.35;;;4.13;;
54121;SDS011;40029;58.708;50.190;2022-09-20T17:01:23;8.52;;;3.78;;
54121;SDS011;40029;58.708;50.190;2022-09-20T17:03:54;5.00;;;3.80;;
54121;SDS011;40029;58.708;50.190;2022-09-20T17:06:26;5.43;;;2.63;;
54121;SDS011;40029;58.708;50.190;2022-09-20T17:08:58;3.05;;;2.50;;
54121;SDS011;40029;58.708;50.190;2022-09-20T17:11:31;4.07;;;2.08;;
54121;SDS011;40029;58.708;50.190;2022-09-20T17:14:06;1.90;;;1.50;;
54121;SDS011;40029;58.708;50.190;2022-09-20T17:16:39;3.53;;;1.77;;
54121;SDS011;40029;58.708;50.190;2022-09-20T17:19:12;4.05;;;2.78;;
54121;SDS011;40029;58.708;50.190;2022-09-20T17:21:45;5.28;;;2.42;;
54121;SDS011;40029;58.708;50.190;2022-09-20T17:24:20;6.95;;;3.00;;
54121;SDS011;40029;58.708;50.190;2022-09-20T17:26:52;6.85;;;2.35;;
54121;SDS011;40029;58.708;50.190;2022-09-20T17:29:23;9.73;;;3.42;;
54121;SDS011;40029;58.708;50.190;2022-09-20T17:31:54;14.25;;;3.40;;
54121;SDS011;40029;58.708;50.190;2022-09-20T17:34:29;4.20;;;1.90;;
54121;SDS011;40029;58.708;50.190;2022-09-20T17:37:01;7.10;;;2.10;;
54121;SDS011;40029;58.708;50.190;2022-09-20T17:39:32;7.85;;;2.22;;
54121;SDS011;40029;58.708;50.190;2022-09-20T17:42:03;6.85;;;3.92;;
54121;SDS011;40029;58.708;50.190;2022-09-20T17:44:35;5.63;;;1.80;;
54121;SDS011;40029;58.708;50.190;2022-09-20T17:47:07;5.68;;;2.03;;
54121;SDS011;40029;58.708;50.190;2022-09-20T17:49:38;3.35;;;2.00;;
54121;SDS011;40029;58.708;50.190;2022-09-20T17:52:10;10.68;;;1.95;;
54121;SDS011;40029;58.708;50.190;2022-09-20T17:54:41;4.47;;;2.53;;
54121;SDS011;40029;58.708;50.190;2022-09-20T17:57:11;7.50;;;2.78;;
54121;SDS011;40029;58.708;50.190;2022-09-20T17:59:43;8.02;;;4.57;;
54121;SDS011;40029;58.708;50.190;2022-09-20T18:02:14;3.40;;;2.53;;
54121;SDS011;40029;58.708;50.190;2022-09-20T18:04:45;4.72;;;1.92;;
54121;SDS011;40029;58.708;50.190;2022-09-20T18:07:16;3.72;;;1.95;;
54121;SDS011;40029;58.708;50.190;2022-09-20T18:09:47;5.28;;;1.70;;
54121;SDS011;40029;58.708;50.190;2022-09-20T18:12:18;2.28;;;1.60;;
54121;SDS011;40029;58.708;50.190;2022-09-20T18:14:49;3.65;;;1.48;;
54121;SDS011;40029;58.708;50.190;2022-09-20T18:17:20;8.88;;;2.00;;
54121;SDS011;40029;58.708;50.190;2022-09-20T18:19:51;4.85;;;2.47;;
54121;SDS011;40029;58.708;50.190;2022-09-20T18:22:22;5.22;;;2.63;;
54121;SDS011;40029;58.708;50.190;2022-09-20T18:24:53;4.70;;;2.22;;
54121;SDS011;40029;58.708;50.190;2022-09-20T18:27:24;2.25;;;1.75;;
54121;SDS011;40029;58.708;50.190;2022-09-20T18:29:55;5.30;;;1.83;;
54121;SDS011;40029;58.708;50.190;2022-09-20T18:32:26;5.75;;;2.20;;
54121;SDS011;40029;58.708;50.190;2022-09-20T18:34:59;7.43;;;2.40;;
54121;SDS011;40029;58.708;50.190;2022-09-20T18:37:30;4.07;;;1.58;;
54121;SDS011;40029;58.708;50.190;2022-09-20T18:40:02;5.03;;;2.40;;
54121;SDS011;40029;58.708;50.190;2022-09-20T18:42:33;8.57;;;2.90;;
54121;SDS011;40029;58.708;50.190;2022-09-20T18:45:04;4.03;;;2.50;;
54121;SDS011;40029;58.708;50.190;2022-09-20T18:47:36;2.58;;;2.08;;
54121;SDS011;40029;58.708;50.190;2022-09-20T18:50:07;7.20;;;2.75;;
54121;SDS011;40029;58.708;50.190;2022-09-20T18:52:39;2.90;;;2.20;;
54121;SDS011;40029;58.708;50.190;2022-09-20T18:55:10;5.22;;;3.05;;
54121;SDS011;40029;58.708;50.190;2022-09-20T18:57:42;3.22;;;2.53;;
54121;SDS011;40029;58.708;50.190;2022-09-20T19:00:13;2.53;;;1.77;;
54121;SDS011;40029;58.708;50.190;2022-09-20T19:11:38;2.70;;;2.08;;
54121;SDS011;40029;58.708;50.190;2022-09-20T19:14:16;6.97;;;1.65;;
54121;SDS011;40029;58.708;50.190;2022-09-20T19:16:58;1.75;;;1.35;;
54121;SDS011;40029;58.708;50.190;2022-09-20T19:25:31;1.63;;;1.33;;
54121;SDS011;40029;58.708;50.190;2022-09-20T19:28:13;3.83;;;1.42;;
54121;SDS011;40029;58.708;50.190;2022-09-20T19:30:45;4.80;;;2.53;;
54121;SDS011;40029;58.708;50.190;2022-09-20T19:33:17;2.25;;;1.80;;
54121;SDS011;40029;58.708;50.190;2022-09-20T19:35:49;5.97;;;2.03;;
54121;SDS011;40029;58.708;50.190;2022-09-20T19:47:09;2.58;;;1.45;;
54121;SDS011;40029;58.708;50.190;2022-09-20T19:50:13;2.78;;;1.50;;
54121;SDS011;40029;58.708;50.190;2022-09-20T19:52:58;1.90;;;1.50;;
54121;SDS011;40029;58.708;50.190;2022-09-20T19:55:33;4.95;;;1.48;;
54121;SDS011;40029;58.708;50.190;2022-09-20T19:58:05;3.45;;;1.52;;
54121;SDS011;40029;58.708;50.190;2022-09-20T20:00:36;2.92;;;1.30;;
54121;SDS011;40029;58.708;50.190;2022-09-20T20:03:09;2.88;;;0.98;;
54121;SDS011;40029;58.708;50.190;2022-09-20T20:05:45;2.55;;;1.20;;
54121;SDS011;40029;58.708;50.190;2022-09-20T20:08:30;1.52;;;1.40;;
54121;SDS011;40029;58.708;50.190;2022-09-20T20:11:11;4.90;;;1.38;;
54121;SDS011;40029;58.708;50.190;2022-09-20T20:22:31;3.33;;;1.40;;
54121;SDS011;40029;58.708;50.190;2022-09-20T20:25:16;2.90;;;1.83;;
54121;SDS011;40029;58.708;50.190;2022-09-20T20:28:09;4.32;;;2.20;;
54121;SDS011;40029;58.708;50.190;2022-09-20T20:30:40;4.30;;;1.80;;
54121;SDS011;40029;58.708;50.190;2022-09-20T20:33:14;3.70;;;1.80;;
54121;SDS011;40029;58.708;50.190;2022-09-20T20:38:25;4.05;;;1.95;;
54121;SDS011;40029;58.708;50.190;2022-09-20T20:40:58;3.15;;;1.48;;
54121;SDS011;40029;58.708;50.190;2022-09-20T20:43:37;3.75;;;1.80;;
54121;SDS011;40029;58.708;50.190;2022-09-20T20:46:10;2.75;;;1.77;;
54121;SDS011;40029;58.708;50.190;2022-09-20T20:48:44;1.90;;;1.48;;
54121;SDS011;40029;58.708;50.190;2022-09-20T20:51:18;4.53;;;1.23;;
54121;SDS011;40029;58.708;50.190;2022-09-20T20:53:51;3.22;;;1.55;;
54121;SDS011;40029;58.708;50.190;2022-09-20T20:56:25;3.42;;;1.30;;
54121;SDS011;40029;58.708;50.190;2022-09-20T20:58:58;5.40;;;1.77;;
54121;SDS011;40029;58.708;50.190;2022-09-20T21:01:36;1.98;;;1.65;;
54121;SDS011;40029;58.708;50.190;2022-09-20T21:04:12;3.25;;;1.83;;
54121;SDS011;40029;58.708;50.190;2022-09-20T21:06:45;6.15;;;1.67;;
54121;SDS011;40029;58.708;50.190;2022-09-20T21:09:16;2.53;;;1.70;;
54121;SDS011;40029;58.708;50.190;2022-09-20T21:11:47;2.63;;;1.70;;
54121;SDS011;40029;58.708;50.190;2022-09-20T21:14:18;4.97;;;1.70;;
54121;SDS011;40029;58.708;50.190;2022-09-20T21:16:49;9.23;;;2.13;;
54121;SDS011;40029;58.708;50.190;2022-09-20T21:19:21;7.53;;;2.25;;
54121;SDS011;40029;58.708;50.190;2022-09-20T21:21:52;3.17;;;2.10;;
54121;SDS011;40029;58.708;50.190;2022-09-20T21:24:23;9.30;;;2.67;;
54121;SDS011;40029;58.708;50.190;2022-09-20T21:26:54;3.35;;;1.95;;
54121;SDS011;40029;58.708;50.190;2022-09-20T21:29:25;5.18;;;2.45;;
54121;SDS011;40029;58.708;50.190;2022-09-20T21:31:56;2.63;;;2.35;;
54121;SDS011;40029;58.708;50.190;2022-09-20T21:34:27;4.18;;;2.83;;
54121;SDS011;40029;58.708;50.190;2022-09-20T21:36:58;3.20;;;2.40;;
54121;SDS011;40029;58.708;50.190;2022-09-20T21:39:29;8.23;;;3.10;;
54121;SDS011;40029;58.708;50.190;2022-09-20T21:42:00;6.40;;;2.55;;
54121;SDS011;40029;58.708;50.190;2022-09-20T21:44:31;3.17;;;2.88;;
54121;SDS011;40029;58.708;50.190;2022-09-20T21:47:02;3.38;;;2.38;;
54121;SDS011;40029;58.708;50.190;2022-09-20T21:49:34;9.18;;;2.35;;
54121;SDS011;40029;58.708;50.190;2022-09-20T21:52:05;6.28;;;2.50;;
54121;SDS011;40029;58.708;50.190;2022-09-20T21:54:37;2.53;;;2.20;;
54121;SDS011;40029;58.708;50.190;2022-09-20T21:57:08;3.53;;;2.30;;
54121;SDS011;40029;58.708;50.190;2022-09-20T22:02:13;5.18;;;1.85;;
54121;SDS011;40029;58.708;50.190;2022-09-20T22:04:46;2.15;;;1.95;;
54121;SDS011;40029;58.708;50.190;2022-09-20T22:07:17;2.80;;;2.00;;
54121;SDS011;40029;58.708;50.190;2022-09-20T22:09:48;4.45;;;2.00;;
54121;SDS011;40029;58.708;50.190;2022-09-20T22:12:19;7.93;;;2.80;;
54121;SDS011;40029;58.708;50.190;2022-09-20T22:14:50;4.22;;;1.67;;
54121;SDS011;40029;58.708;50.190;2022-09-20T22:17:21;5.28;;;1.92;;
54121;SDS011;40029;58.708;50.190;2022-09-20T22:19:52;2.25;;;1.92;;
54121;SDS011;40029;58.708;50.190;2022-09-20T22:22:23;6.45;;;2.03;;
54121;SDS011;40029;58.708;50.190;2022-09-20T22:24:54;3.03;;;1.80;;
54121;SDS011;40029;58.708;50.190;2022-09-20T22:27:25;4.15;;;2.10;;
54121;SDS011;40029;58.708;50.190;2022-09-20T22:29:56;5.85;;;2.20;;
54121;SDS011;40029;58.708;50.190;2022-09-20T22:32:27;3.60;;;2.22;;
54121;SDS011;40029;58.708;50.190;2022-09-20T22:34:58;2.58;;;1.80;;
54121;SDS011;40029;58.708;50.190;2022-09-20T22:37:29;1.98;;;1.77;;
54121;SDS011;40029;58.708;50.190;2022-09-20T22:40:00;3.10;;;2.38;;
54121;SDS011;40029;58.708;50.190;2022-09-20T22:42:33;3.63;;;1.85;;
54121;SDS011;40029;58.708;50.190;2022-09-20T22:45:04;4.28;;;2.17;;
54121;SDS011;40029;58.708;50.190;2022-09-20T22:47:36;2.75;;;2.05;;
54121;SDS011;40029;58.708;50.190;2022-09-20T22:50:07;7.13;;;2.30;;
54121;SDS011;40029;58.708;50.190;2022-09-20T22:52:38;5.43;;;2.08;;
54121;SDS011;40029;58.708;50.190;2022-09-20T22:55:09;2.00;;;1.80;;
54121;SDS011;40029;58.708;50.190;2022-09-20T22:57:41;2.95;;;1.90;;
54121;SDS011;40029;58.708;50.190;2022-09-20T23:00:12;2.55;;;1.80;;
54121;SDS011;40029;58.708;50.190;2022-09-20T23:02:44;3.03;;;2.30;;
54121;SDS011;40029;58.708;50.190;2022-09-20T23:05:15;4.00;;;2.58;;
54121;SDS011;40029;58.708;50.190;2022-09-20T23:07:47;8.45;;;3.28;;
54121;SDS011;40029;58.708;50.190;2022-09-20T23:10:18;4.85;;;3.25;;
54121;SDS011;40029;58.708;50.190;2022-09-20T23:12:50;13.63;;;4.47;;
54121;SDS011;40029;58.708;50.190;2022-09-20T23:15:21;5.55;;;3.28;;
54121;SDS011;40029;58.708;50.190;2022-09-20T23:17:52;8.63;;;2.90;;
54121;SDS011;40029;58.708;50.190;2022-09-20T23:20:22;5.43;;;2.85;;
54121;SDS011;40029;58.708;50.190;2022-09-20T23:22:54;3.00;;;2.70;;
54121;SDS011;40029;58.708;50.190;2022-09-20T23:25:25;4.70;;;3.10;;
54121;SDS011;40029;58.708;50.190;2022-09-20T23:27:56;4.55;;;2.88;;
54121;SDS011;40029;58.708;50.190;2022-09-20T23:30:27;7.35;;;3.55;;
54121;SDS011;40029;58.708;50.190;2022-09-20T23:32:58;5.35;;;3.20;;
54121;SDS011;40029;58.708;50.190;2022-09-20T23:35:29;3.88;;;2.88;;
54121;SDS011;40029;58.708;50.190;2022-09-20T23:38:00;6.47;;;3.80;;
54121;SDS011;40029;58.708;50.190;2022-09-20T23:40:32;3.45;;;2.80;;
54121;SDS011;40029;58.708;50.190;2022-09-20T23:43:03;5.78;;;3.15;;
54121;SDS011;40029;58.708;50.190;2022-09-20T23:45:34;5.00;;;2.85;;
54121;SDS011;40029;58.708;50.190;2022-09-20T23:48:04;5.10;;;3.65;;
54121;SDS011;40029;58.708;50.190;2022-09-20T23:50:35;6.18;;;3.15;;
54121;SDS011;40029;58.708;50.190;2022-09-20T23:53:07;3.85;;;3.00;;
54121;SDS011;40029;58.708;50.190;2022-09-20T23:55:38;6.40;;;2.75;;
54121;SDS011;40029;58.708;50.190;2022-09-20T23:58:09;3.90;;;2.80;;
